Time;durP1;ratioP1;P1;durP2;ratioP2;P2;SDS_P1;SDS_P2;PMS_P1;PMS_P2;Temp;Humidity;BMP_temperature;BMP_pressure;BME280_temperature;BME280_humidity;BME280_pressure;Samples;Min_cycle;Max_cycle;Signal;HPM_P1;HPM_P2
2023/11/10 00:01:36;;;;;;;12.27;8.05;;;7.20;99.90;;;;;;4980824;28;20125;-65
2023/11/10 00:04:03;;;;;;;11.95;7.85;;;7.20;99.90;;;;;;4987077;28;20092;-65
2023/11/10 00:06:28;;;;;;;12.45;7.70;;;7.20;99.90;;;;;;4988481;28;20038;-65
2023/11/10 00:08:55;;;;;;;11.57;7.18;;;7.20;99.90;;;;;;4970449;28;20038;-65
2023/11/10 00:11:20;;;;;;;10.48;7.32;;;7.20;99.90;;;;;;4970461;28;20047;-65
2023/11/10 00:13:46;;;;;;;10.90;6.80;;;7.20;99.90;;;;;;4987975;28;20045;-65
2023/11/10 00:16:11;;;;;;;11.13;7.20;;;7.20;99.90;;;;;;4987320;28;20065;-65
2023/11/10 00:18:37;;;;;;;10.77;7.15;;;7.20;99.90;;;;;;4980833;28;20086;-65
2023/11/10 00:21:03;;;;;;;10.23;6.47;;;7.20;99.90;;;;;;4988215;28;20056;-65
2023/11/10 00:23:28;;;;;;;11.30;6.93;;;7.20;99.90;;;;;;4988325;28;20117;-65
2023/11/10 00:25:54;;;;;;;10.90;7.20;;;7.20;99.90;;;;;;4986518;28;20038;-65
2023/11/10 00:28:19;;;;;;;10.93;6.53;;;7.20;99.90;;;;;;4988604;28;20039;-64
2023/11/10 00:30:45;;;;;;;12.00;6.78;;;7.20;99.90;;;;;;4987483;28;20162;-64
2023/11/10 00:33:11;;;;;;;11.27;7.00;;;7.20;99.90;;;;;;4987778;28;20095;-65
2023/11/10 00:35:37;;;;;;;9.43;6.45;;;7.20;99.90;;;;;;4985525;28;20152;-65
2023/11/10 00:38:03;;;;;;;8.60;6.00;;;7.20;99.90;;;;;;4987646;28;20092;-65
2023/11/10 00:40:31;;;;;;;9.90;6.45;;;7.20;99.90;;;;;;4988437;28;20538;-65
2023/11/10 00:42:56;;;;;;;10.23;6.10;;;7.20;99.90;;;;;;4962936;28;20054;-65
2023/11/10 00:45:22;;;;;;;9.20;6.10;;;7.20;99.90;;;;;;4969697;28;20065;-64
2023/11/10 00:47:48;;;;;;;8.98;5.63;;;7.20;99.90;;;;;;4987805;28;20596;-65
2023/11/10 00:50:13;;;;;;;8.55;5.63;;;7.20;99.90;;;;;;4987772;28;20045;-65
2023/11/10 00:52:39;;;;;;;8.55;5.45;;;7.20;99.90;;;;;;4970208;28;20045;-65
2023/11/10 00:55:06;;;;;;;8.90;5.55;;;7.20;99.90;;;;;;4986629;28;20038;-65
2023/11/10 00:57:32;;;;;;;7.95;5.05;;;7.30;99.90;;;;;;4981363;28;20042;-65
2023/11/10 00:59:58;;;;;;;10.70;5.63;;;7.20;99.90;;;;;;4987565;28;20405;-65
2023/11/10 01:02:24;;;;;;;8.15;5.18;;;7.20;99.90;;;;;;4987876;28;20038;-65
2023/11/10 01:04:49;;;;;;;10.00;4.90;;;7.20;99.90;;;;;;4986464;28;20980;-65
2023/11/10 01:07:15;;;;;;;8.05;5.05;;;7.20;99.90;;;;;;4986194;28;20042;-65
2023/11/10 01:09:41;;;;;;;9.40;4.93;;;7.20;99.90;;;;;;4987224;28;20481;-65
2023/11/10 01:12:06;;;;;;;7.57;4.47;;;7.20;99.90;;;;;;4987492;28;20401;-65
2023/11/10 01:14:32;;;;;;;8.20;5.03;;;7.20;99.90;;;;;;4983642;28;20034;-65
2023/11/10 01:16:58;;;;;;;7.78;4.55;;;7.20;99.90;;;;;;4988182;28;20089;-65
2023/11/10 01:19:23;;;;;;;10.05;4.30;;;7.20;99.90;;;;;;4973879;28;20097;-65
2023/11/10 01:21:49;;;;;;;8.38;4.38;;;7.30;99.90;;;;;;4990087;28;20046;-65
2023/11/10 01:24:16;;;;;;;7.88;4.30;;;7.30;99.90;;;;;;4986671;28;20046;-65
2023/11/10 01:26:42;;;;;;;9.00;4.45;;;7.30;99.90;;;;;;4989877;28;20034;-65
2023/11/10 01:29:08;;;;;;;8.27;4.70;;;7.30;99.90;;;;;;4972831;28;20801;-65
2023/11/10 01:31:33;;;;;;;8.43;4.07;;;7.30;99.90;;;;;;4990421;28;20060;-65
2023/11/10 01:33:59;;;;;;;8.95;4.18;;;7.30;99.90;;;;;;4990551;28;20472;-64
2023/11/10 01:36:24;;;;;;;8.05;4.00;;;7.40;99.90;;;;;;4989514;28;20046;-65
2023/11/10 01:38:51;;;;;;;7.80;4.15;;;7.40;99.90;;;;;;4989648;28;20057;-65
2023/11/10 01:41:18;;;;;;;8.30;3.85;;;7.40;99.90;;;;;;4990723;28;20050;-65
2023/11/10 01:43:45;;;;;;;8.45;3.90;;;7.40;99.90;;;;;;4989890;28;20039;-65
2023/11/10 01:46:39;;;;;;;7.88;3.83;;;7.40;99.90;;;;;;4989178;28;20089;-65
2023/11/10 01:49:05;;;;;;;6.30;4.35;;;7.40;99.90;;;;;;4984996;28;20104;-65
2023/11/10 01:51:31;;;;;;;7.05;4.55;;;7.40;99.90;;;;;;4990242;28;20034;-65
2023/11/10 01:53:57;;;;;;;8.70;4.65;;;7.40;99.90;;;;;;4989933;28;20042;-64
2023/11/10 01:56:23;;;;;;;9.02;4.70;;;7.40;99.90;;;;;;4989108;28;20054;-65
2023/11/10 01:58:49;;;;;;;7.85;4.78;;;7.50;99.90;;;;;;4972180;28;20054;-65
2023/11/10 02:01:15;;;;;;;7.55;4.78;;;7.40;99.90;;;;;;4988009;28;20053;-65
2023/11/10 02:03:42;;;;;;;10.73;4.82;;;7.50;99.90;;;;;;4989864;28;20038;-65
2023/11/10 02:06:08;;;;;;;8.18;4.68;;;7.50;99.90;;;;;;4989470;28;20044;-65
2023/11/10 02:08:34;;;;;;;8.10;4.40;;;7.50;99.90;;;;;;4983432;28;20716;-65
2023/11/10 02:11:00;;;;;;;10.40;4.78;;;7.50;99.90;;;;;;4989470;28;20639;-65
2023/11/10 02:13:25;;;;;;;6.95;4.57;;;7.50;99.90;;;;;;4984578;28;20130;-65
2023/11/10 02:15:51;;;;;;;6.65;4.20;;;7.50;99.90;;;;;;4977109;28;20042;-65
2023/11/10 02:18:17;;;;;;;9.00;5.10;;;7.50;99.90;;;;;;4985981;28;20038;-65
2023/11/10 02:20:43;;;;;;;8.73;4.70;;;7.50;99.90;;;;;;4988396;28;20060;-65
2023/11/10 02:23:08;;;;;;;9.18;4.75;;;7.50;99.90;;;;;;4984747;28;20498;-65
2023/11/10 02:25:35;;;;;;;8.68;4.85;;;7.50;99.90;;;;;;4971164;28;20042;-65
2023/11/10 02:28:00;;;;;;;7.95;4.70;;;7.50;99.90;;;;;;4985964;28;20038;-64
2023/11/10 02:30:26;;;;;;;7.45;4.47;;;7.60;99.90;;;;;;4971190;28;20053;-65
2023/11/10 02:32:52;;;;;;;8.18;4.63;;;7.60;99.90;;;;;;4970617;28;20444;-65
2023/11/10 02:35:17;;;;;;;8.15;4.93;;;7.60;99.90;;;;;;4971535;28;20069;-65
2023/11/10 02:37:43;;;;;;;6.75;4.20;;;7.60;99.90;;;;;;4989872;28;20518;-65
2023/11/10 02:40:09;;;;;;;7.32;4.35;;;7.60;99.90;;;;;;4993369;28;20118;-65
2023/11/10 02:42:35;;;;;;;6.55;4.18;;;7.60;99.90;;;;;;4970798;28;20074;-65
2023/11/10 02:45:01;;;;;;;7.70;4.40;;;7.60;99.90;;;;;;4981299;28;20070;-65
2023/11/10 02:47:27;;;;;;;8.02;4.28;;;7.60;99.90;;;;;;4970908;28;20100;-65
2023/11/10 02:49:52;;;;;;;6.25;3.90;;;7.60;99.90;;;;;;4987172;28;20053;-65
2023/11/10 02:52:18;;;;;;;10.48;4.00;;;7.60;99.90;;;;;;4990798;28;20478;-65
2023/11/10 02:54:44;;;;;;;9.60;4.10;;;7.60;99.90;;;;;;4986400;28;20034;-65
2023/11/10 02:57:09;;;;;;;7.65;3.83;;;7.60;99.90;;;;;;4982358;28;20100;-65
2023/11/10 02:59:37;;;;;;;6.78;4.10;;;7.60;99.90;;;;;;4988513;28;20521;-65
2023/11/10 03:02:02;;;;;;;8.05;3.72;;;7.60;99.90;;;;;;4971534;28;20410;-66
2023/11/10 03:04:28;;;;;;;6.57;3.90;;;7.60;99.90;;;;;;4971122;28;20046;-65
2023/11/10 03:06:54;;;;;;;9.02;3.60;;;7.60;99.90;;;;;;4987071;28;20042;-65
2023/11/10 03:09:19;;;;;;;8.45;4.20;;;7.60;99.90;;;;;;4984006;28;20038;-65
2023/11/10 03:11:45;;;;;;;7.07;3.97;;;7.60;99.90;;;;;;4985633;28;20069;-65
2023/11/10 03:14:10;;;;;;;8.52;3.60;;;7.60;99.90;;;;;;4951795;28;20182;-65
2023/11/10 03:16:36;;;;;;;8.10;3.80;;;7.60;99.90;;;;;;5001223;28;20033;-65
2023/11/10 03:19:03;;;;;;;7.55;3.40;;;7.60;99.90;;;;;;4985664;28;20476;-65
2023/11/10 03:21:29;;;;;;;8.52;3.65;;;7.70;99.90;;;;;;4988982;28;20082;-65
2023/11/10 03:23:54;;;;;;;7.68;3.67;;;7.60;99.90;;;;;;4985717;28;20084;-65
2023/11/10 03:26:20;;;;;;;5.70;4.07;;;7.60;99.90;;;;;;4979056;28;20046;-65
2023/11/10 03:28:46;;;;;;;10.00;3.75;;;7.60;99.90;;;;;;4987391;28;20046;-65
2023/11/10 03:31:11;;;;;;;6.43;3.47;;;7.60;99.90;;;;;;4988655;28;20026;-65
2023/11/10 03:33:37;;;;;;;8.85;4.18;;;7.60;99.90;;;;;;4987600;28;20049;-65
2023/11/10 03:36:03;;;;;;;5.97;3.75;;;7.60;99.90;;;;;;4986430;28;20181;-65
2023/11/10 03:38:29;;;;;;;6.32;3.47;;;7.60;99.90;;;;;;4988545;28;20502;-65
2023/11/10 03:40:54;;;;;;;6.45;3.47;;;7.60;99.90;;;;;;4969093;28;20117;-65
2023/11/10 03:43:20;;;;;;;7.53;3.65;;;7.60;99.90;;;;;;4989129;28;20074;-65
2023/11/10 03:45:46;;;;;;;8.43;3.70;;;7.60;99.90;;;;;;4966452;28;20089;-65
2023/11/10 03:48:12;;;;;;;8.85;3.70;;;7.60;99.90;;;;;;4988338;28;20116;-65
2023/11/10 03:50:39;;;;;;;6.35;3.45;;;7.60;99.90;;;;;;4985277;28;20637;-64
2023/11/10 03:53:04;;;;;;;10.07;3.95;;;7.60;99.90;;;;;;4988003;28;20046;-65
2023/11/10 03:55:30;;;;;;;9.93;3.95;;;7.70;99.90;;;;;;4983929;28;20068;-65
2023/11/10 03:57:55;;;;;;;11.02;3.80;;;7.70;99.90;;;;;;4971328;28;20049;-65
2023/11/10 04:00:22;;;;;;;6.22;3.92;;;7.60;99.90;;;;;;4988082;28;20512;-65
2023/11/10 04:02:48;;;;;;;7.20;3.70;;;7.60;99.90;;;;;;4994669;28;20494;-65
2023/11/10 04:05:14;;;;;;;5.78;3.40;;;7.70;99.90;;;;;;4996171;28;20089;-65
2023/11/10 04:07:40;;;;;;;6.32;3.75;;;7.70;99.90;;;;;;4986466;28;20030;-65
2023/11/10 04:10:06;;;;;;;6.43;3.78;;;7.70;99.90;;;;;;4987062;28;20039;-65
2023/11/10 04:12:32;;;;;;;6.47;3.58;;;7.60;99.90;;;;;;4987470;28;20506;-65
2023/11/10 04:14:58;;;;;;;6.40;3.20;;;7.70;99.90;;;;;;4987746;28;20138;-65
2023/11/10 04:17:24;;;;;;;5.72;3.20;;;7.70;99.90;;;;;;4970007;28;20212;-65
2023/11/10 04:19:50;;;;;;;8.77;3.63;;;7.70;99.90;;;;;;4970446;28;20046;-65
2023/11/10 04:22:16;;;;;;;5.43;3.40;;;7.70;99.90;;;;;;4970169;28;20042;-65
2023/11/10 04:24:42;;;;;;;7.10;3.33;;;7.70;99.90;;;;;;4985574;28;20117;-65
2023/11/10 04:27:08;;;;;;;8.40;3.65;;;7.70;99.90;;;;;;4970198;28;20026;-65
2023/11/10 04:29:36;;;;;;;9.73;3.72;;;7.70;99.90;;;;;;4987087;28;20035;-65
2023/11/10 04:32:03;;;;;;;6.72;3.78;;;7.70;99.90;;;;;;4987764;28;20042;-65
2023/11/10 04:34:28;;;;;;;6.47;3.35;;;7.70;99.90;;;;;;4986363;28;20054;-65
2023/11/10 04:36:54;;;;;;;6.70;3.67;;;7.70;99.90;;;;;;4998495;28;20056;-65
2023/11/10 04:39:20;;;;;;;8.07;3.40;;;7.70;99.90;;;;;;4986316;28;20128;-64
2023/11/10 04:41:47;;;;;;;4.88;3.42;;;7.70;99.90;;;;;;4974375;28;20637;-65
2023/11/10 04:44:13;;;;;;;6.28;3.50;;;7.70;99.90;;;;;;4992875;28;20050;-65
2023/11/10 04:46:41;;;;;;;6.35;3.50;;;7.70;99.90;;;;;;4995627;28;20576;-65
2023/11/10 04:49:07;;;;;;;7.05;3.25;;;7.70;99.90;;;;;;4983136;28;20096;-65
2023/11/10 04:51:33;;;;;;;6.03;3.65;;;7.70;99.90;;;;;;5005215;28;20042;-65
2023/11/10 04:53:59;;;;;;;6.25;3.70;;;7.80;99.90;;;;;;4984061;28;20087;-65
2023/11/10 04:56:25;;;;;;;6.85;3.53;;;7.80;99.90;;;;;;4973530;28;20054;-65
2023/11/10 04:58:50;;;;;;;6.63;3.45;;;7.70;99.90;;;;;;4990083;28;20039;-65
2023/11/10 05:01:16;;;;;;;7.28;3.40;;;7.80;99.90;;;;;;4989558;28;20038;-65
2023/11/10 05:03:42;;;;;;;6.10;3.40;;;7.70;99.90;;;;;;4989723;28;20034;-65
2023/11/10 05:06:08;;;;;;;7.47;3.40;;;7.80;99.90;;;;;;4997545;28;20096;-65
2023/11/10 05:08:33;;;;;;;7.60;3.92;;;7.70;99.90;;;;;;4979226;28;20038;-65
2023/11/10 05:10:59;;;;;;;8.02;3.60;;;7.80;99.90;;;;;;4982943;28;20379;-65
2023/11/10 05:13:25;;;;;;;7.88;3.50;;;7.80;99.90;;;;;;5002903;28;20046;-65
2023/11/10 05:15:50;;;;;;;8.07;3.83;;;7.70;99.90;;;;;;4990965;28;20046;-65
2023/11/10 05:18:16;;;;;;;7.80;3.90;;;7.80;99.90;;;;;;4994473;28;20073;-65
2023/11/10 05:20:41;;;;;;;7.15;3.55;;;7.80;99.90;;;;;;5000253;28;20448;-65
2023/11/10 05:23:07;;;;;;;9.90;3.92;;;7.80;99.90;;;;;;4986585;28;20066;-65
2023/11/10 05:25:32;;;;;;;7.60;4.03;;;7.80;99.90;;;;;;4984538;28;20057;-65
2023/11/10 05:27:58;;;;;;;7.53;3.92;;;7.80;99.90;;;;;;4992354;28;20062;-65
2023/11/10 05:30:24;;;;;;;7.60;4.00;;;7.80;99.90;;;;;;5004482;28;20393;-65
2023/11/10 05:32:50;;;;;;;5.20;3.80;;;7.80;99.90;;;;;;4990067;28;20109;-65
2023/11/10 05:35:16;;;;;;;8.73;4.03;;;7.80;99.90;;;;;;4992593;28;20208;-65
2023/11/10 05:37:41;;;;;;;9.95;4.40;;;7.80;99.90;;;;;;4971377;28;20046;-65
2023/11/10 05:40:10;;;;;;;7.03;4.22;;;7.80;99.90;;;;;;4983276;28;20034;-65
2023/11/10 05:42:36;;;;;;;9.02;4.70;;;7.80;99.90;;;;;;4988741;28;20045;-65
2023/11/10 05:45:02;;;;;;;10.75;4.75;;;7.80;99.90;;;;;;4987686;28;20046;-65
2023/11/10 05:47:28;;;;;;;11.82;4.50;;;7.80;99.90;;;;;;4986258;28;20517;-65
2023/11/10 05:49:54;;;;;;;8.30;4.80;;;7.80;99.90;;;;;;4988971;28;20547;-66
2023/11/10 05:52:19;;;;;;;15.23;5.15;;;7.80;99.90;;;;;;4987317;28;20042;-65
2023/11/10 05:54:45;;;;;;;7.38;4.97;;;7.80;99.90;;;;;;4988810;28;20038;-65
2023/11/10 05:57:13;;;;;;;10.60;4.80;;;7.80;99.90;;;;;;4990103;28;20204;-65
2023/11/10 05:59:38;;;;;;;7.32;4.45;;;7.90;99.90;;;;;;4990214;28;20038;-65
2023/11/10 06:02:04;;;;;;;9.20;5.10;;;7.80;99.90;;;;;;4988706;28;20430;-65
2023/11/10 06:04:30;;;;;;;8.20;4.75;;;7.80;99.90;;;;;;4989669;28;20410;-65
2023/11/10 06:06:55;;;;;;;10.20;4.82;;;7.90;99.90;;;;;;4990465;28;20030;-65
2023/11/10 06:09:22;;;;;;;8.77;4.70;;;7.80;99.90;;;;;;4989783;28;20046;-65
2023/11/10 06:11:50;;;;;;;9.00;5.35;;;7.90;99.90;;;;;;4972175;28;20050;-65
2023/11/10 06:14:17;;;;;;;10.20;5.32;;;7.90;99.90;;;;;;4989106;28;20113;-66
2023/11/10 06:16:44;;;;;;;8.52;4.80;;;7.90;99.90;;;;;;4988740;28;20509;-65
2023/11/10 06:19:10;;;;;;;11.82;5.10;;;7.80;99.90;;;;;;4988562;28;20042;-65
2023/11/10 06:21:36;;;;;;;11.63;5.45;;;7.80;99.90;;;;;;4989116;28;20046;-65
2023/11/10 06:24:03;;;;;;;10.77;5.68;;;7.80;99.90;;;;;;4988814;28;20401;-65
2023/11/10 06:26:39;;;;;;;10.15;5.40;;;7.80;99.90;;;;;;4971801;28;20099;-65
2023/11/10 06:29:08;;;;;;;9.48;5.55;;;7.80;99.90;;;;;;4985403;28;20123;-65
2023/11/10 06:31:34;;;;;;;11.43;5.20;;;7.80;99.90;;;;;;4987431;28;20074;-65
2023/11/10 06:34:10;;;;;;;9.65;5.80;;;7.80;99.90;;;;;;4971781;28;20121;-65
2023/11/10 06:36:39;;;;;;;9.20;5.78;;;7.80;99.90;;;;;;4987074;28;20103;-67
2023/11/10 06:39:05;;;;;;;9.43;5.65;;;7.80;99.90;;;;;;4971317;28;20114;-65
2023/11/10 06:41:31;;;;;;;9.73;5.82;;;7.80;99.90;;;;;;4989144;28;20109;-65
2023/11/10 06:44:04;;;;;;;10.45;5.65;;;7.80;99.90;;;;;;4970107;28;20053;-65
2023/11/10 06:46:35;;;;;;;11.50;6.15;;;7.80;99.90;;;;;;4987459;28;20044;-65
2023/11/10 06:49:09;;;;;;;8.90;5.78;;;7.80;99.90;;;;;;4981469;28;20026;-65
2023/11/10 06:51:38;;;;;;;12.98;6.30;;;7.70;99.90;;;;;;4988317;28;20049;-65
2023/11/10 06:54:08;;;;;;;9.60;6.13;;;7.70;99.90;;;;;;4967096;28;20665;-65
2023/11/10 06:56:34;;;;;;;11.02;6.60;;;7.80;99.90;;;;;;4970592;28;20066;-65
2023/11/10 06:59:03;;;;;;;11.48;6.38;;;7.70;99.90;;;;;;4991124;28;20508;-65
2023/11/10 07:01:35;;;;;;;15.13;6.55;;;7.80;99.90;;;;;;4982562;28;20042;-65
2023/11/10 07:04:01;;;;;;;11.00;6.00;;;7.80;99.90;;;;;;4969039;28;20060;-64
2023/11/10 07:06:30;;;;;;;13.02;6.53;;;7.70;99.90;;;;;;4967416;28;20489;-65
2023/11/10 07:08:56;;;;;;;12.27;6.47;;;7.70;99.90;;;;;;4970128;28;20528;-64
2023/11/10 07:11:22;;;;;;;9.20;6.25;;;7.70;99.90;;;;;;4967360;28;20049;-65
2023/11/10 07:13:51;;;;;;;11.18;6.07;;;7.70;99.90;;;;;;4971644;28;20044;-65
2023/11/10 07:16:20;;;;;;;14.93;6.38;;;7.60;99.90;;;;;;4994550;28;20046;-65
2023/11/10 07:18:52;;;;;;;9.65;5.88;;;7.60;99.90;;;;;;4970535;28;20498;-64
2023/11/10 07:21:21;;;;;;;11.07;6.63;;;7.60;99.90;;;;;;4965148;28;20856;-64
2023/11/10 07:23:53;;;;;;;12.05;6.43;;;7.60;99.90;;;;;;4970380;28;20506;-65
2023/11/10 07:26:22;;;;;;;12.90;6.45;;;7.70;99.90;;;;;;4987548;28;20042;-65
2023/11/10 07:28:48;;;;;;;12.82;6.60;;;7.70;99.90;;;;;;4987515;28;20591;-64
2023/11/10 07:31:20;;;;;;;11.05;6.13;;;7.70;99.90;;;;;;4954142;28;20506;-65
2023/11/10 07:33:46;;;;;;;9.57;6.43;;;7.70;99.90;;;;;;4987870;28;20046;-65
2023/11/10 07:36:18;;;;;;;10.55;6.53;;;7.70;99.90;;;;;;4987034;28;20096;-65
2023/11/10 07:38:45;;;;;;;9.90;6.40;;;7.70;99.90;;;;;;4970078;28;20046;-65
2023/11/10 07:41:13;;;;;;;12.88;6.28;;;7.70;99.90;;;;;;4987368;28;20521;-65
2023/11/10 07:43:39;;;;;;;9.68;6.22;;;7.80;99.90;;;;;;4968027;28;20043;-65
2023/11/10 07:46:07;;;;;;;12.70;6.30;;;7.80;99.90;;;;;;4970025;28;20046;-65
2023/11/10 07:48:39;;;;;;;13.70;6.28;;;7.80;99.90;;;;;;4986937;28;20050;-65
2023/11/10 07:51:05;;;;;;;11.82;6.18;;;7.80;99.90;;;;;;4986621;28;20042;-65
2023/11/10 07:53:35;;;;;;;14.88;6.22;;;7.90;99.90;;;;;;4987434;28;20096;-65
2023/11/10 07:56:04;;;;;;;11.45;6.32;;;7.90;99.90;;;;;;4967521;28;20536;-65
2023/11/10 07:58:31;;;;;;;13.13;6.30;;;7.90;99.90;;;;;;4970150;28;20104;-65
2023/11/10 08:00:57;;;;;;;12.95;6.00;;;7.90;99.90;;;;;;4966558;28;20453;-65
2023/11/10 08:03:25;;;;;;;13.88;6.35;;;7.90;99.90;;;;;;4969344;28;20085;-65
2023/11/10 08:05:53;;;;;;;9.95;6.05;;;8.00;99.90;;;;;;4985822;28;20039;-65
2023/11/10 08:08:22;;;;;;;14.88;5.95;;;8.00;99.90;;;;;;4986398;28;20038;-65
2023/11/10 08:10:49;;;;;;;15.75;5.90;;;8.10;99.90;;;;;;4969888;28;20034;-65
2023/11/10 08:13:15;;;;;;;12.23;5.40;;;8.10;99.90;;;;;;4987386;28;20043;-65
2023/11/10 08:15:43;;;;;;;10.20;5.68;;;8.20;99.90;;;;;;4968379;28;20042;-65
2023/11/10 08:18:12;;;;;;;12.55;5.20;;;8.30;99.90;;;;;;4969530;28;20055;-65
2023/11/10 08:20:40;;;;;;;12.75;4.65;;;8.30;99.90;;;;;;4982468;28;20126;-65
2023/11/10 08:23:06;;;;;;;12.30;5.45;;;8.40;99.90;;;;;;4984744;28;20038;-65
2023/11/10 08:25:33;;;;;;;10.18;4.57;;;8.50;99.90;;;;;;4981677;28;20159;-65
2023/11/10 08:27:59;;;;;;;9.85;4.80;;;8.50;99.90;;;;;;4970849;28;20072;-65
2023/11/10 08:30:26;;;;;;;8.25;4.10;;;8.60;99.90;;;;;;4986534;28;20052;-67
2023/11/10 08:32:55;;;;;;;8.98;3.28;;;8.60;99.90;;;;;;4986406;28;20084;-65
2023/11/10 08:35:24;;;;;;;10.60;3.50;;;8.60;99.90;;;;;;4967664;28;20046;-64
2023/11/10 08:37:50;;;;;;;7.63;3.67;;;8.60;99.90;;;;;;4966479;28;20525;-64
2023/11/10 08:40:16;;;;;;;10.32;3.63;;;8.50;99.90;;;;;;4969008;28;20046;-65
2023/11/10 08:42:45;;;;;;;6.07;3.30;;;8.50;99.90;;;;;;4984203;28;20042;-65
2023/11/10 08:45:15;;;;;;;10.85;3.22;;;8.50;99.90;;;;;;4986669;28;20108;-62
2023/11/10 08:47:47;;;;;;;7.13;3.00;;;8.50;99.90;;;;;;4985629;28;20192;-62
2023/11/10 08:50:13;;;;;;;7.30;3.30;;;8.50;99.90;;;;;;4986384;28;20267;-62
2023/11/10 08:52:46;;;;;;;7.78;3.25;;;8.50;99.90;;;;;;4970502;28;20046;-63
2023/11/10 08:55:20;;;;;;;7.18;2.97;;;8.40;99.90;;;;;;4988660;28;20108;-62
2023/11/10 08:57:47;;;;;;;9.82;3.35;;;8.40;99.90;;;;;;4985657;28;20050;-62
2023/11/10 09:00:17;;;;;;;13.35;3.45;;;8.40;99.90;;;;;;4997649;28;20057;-62
2023/11/10 09:02:56;;;;;;;10.38;3.38;;;8.30;99.90;;;;;;4979737;28;20047;-62
2023/11/10 09:05:22;;;;;;;9.63;3.40;;;8.30;99.90;;;;;;4984171;28;20105;-62
2023/11/10 09:08:06;;;;;;;9.77;3.30;;;8.30;99.90;;;;;;4992904;28;20541;-62
2023/11/10 09:10:35;;;;;;;8.82;3.35;;;8.20;99.90;;;;;;4987986;28;20064;-61
2023/11/10 09:13:02;;;;;;;7.78;3.10;;;8.30;99.90;;;;;;4964953;28;20054;-63
2023/11/10 09:15:36;;;;;;;8.38;2.92;;;8.30;99.90;;;;;;4982562;28;20042;-62
2023/11/10 09:18:16;;;;;;;7.85;3.33;;;8.30;99.90;;;;;;4982908;28;20042;-62
2023/11/10 09:20:50;;;;;;;6.43;2.72;;;8.30;99.90;;;;;;4982046;28;20050;-63
2023/11/10 09:23:17;;;;;;;9.90;3.20;;;8.30;99.90;;;;;;4977652;28;20049;-62
2023/11/10 09:25:51;;;;;;;6.90;2.95;;;8.30;99.90;;;;;;4986193;28;20042;-62
2023/11/10 09:28:18;;;;;;;7.72;2.85;;;8.40;99.90;;;;;;4986113;28;20034;-62
2023/11/10 09:30:44;;;;;;;7.65;3.10;;;8.30;99.90;;;;;;4984922;28;20046;-62
2023/11/10 09:33:10;;;;;;;6.63;2.90;;;8.30;99.90;;;;;;4993838;28;20109;-63
2023/11/10 09:35:41;;;;;;;8.65;2.80;;;8.40;99.90;;;;;;4995497;28;20034;-63
2023/11/10 09:38:07;;;;;;;12.35;3.60;;;8.30;99.90;;;;;;4989458;28;20038;-62
2023/11/10 09:40:38;;;;;;;7.30;2.90;;;8.40;99.90;;;;;;4991496;28;20054;-61
2023/11/10 09:43:12;;;;;;;7.10;3.30;;;8.40;99.90;;;;;;4985537;28;20049;-62
2023/11/10 09:45:48;;;;;;;7.20;2.90;;;8.40;99.90;;;;;;4989000;28;20039;-60
2023/11/10 09:48:22;;;;;;;10.30;3.55;;;8.40;99.90;;;;;;4987572;28;20058;-62
2023/11/10 09:50:53;;;;;;;7.03;3.00;;;8.40;99.90;;;;;;4995650;28;20042;-62
2023/11/10 09:53:22;;;;;;;6.53;2.85;;;8.40;99.90;;;;;;4993459;28;20041;-61
2023/11/10 09:55:52;;;;;;;6.90;2.78;;;8.40;99.90;;;;;;4990235;28;20081;-62
2023/11/10 09:58:20;;;;;;;8.57;2.88;;;8.40;99.90;;;;;;4994828;28;20518;-63
2023/11/10 10:00:55;;;;;;;6.28;2.50;;;8.40;99.90;;;;;;4991509;28;20042;-62
2023/11/10 10:03:24;;;;;;;9.30;2.92;;;8.40;99.90;;;;;;4991589;28;20148;-61
2023/11/10 10:05:59;;;;;;;7.07;2.80;;;8.30;99.90;;;;;;4992172;28;20044;-62
2023/11/10 10:08:27;;;;;;;4.65;2.30;;;8.40;99.90;;;;;;4986639;28;20121;-63
2023/11/10 10:10:56;;;;;;;9.38;2.70;;;8.40;99.90;;;;;;4991980;28;20141;-62
2023/11/10 10:13:33;;;;;;;7.00;2.72;;;8.40;99.90;;;;;;4990986;28;20117;-63
2023/11/10 10:16:12;;;;;;;7.57;2.47;;;8.40;99.90;;;;;;4994198;28;20050;-62
2023/11/10 10:18:45;;;;;;;6.15;2.58;;;8.40;99.90;;;;;;4968228;28;20054;-63
2023/11/10 10:21:11;;;;;;;8.55;2.90;;;8.40;99.90;;;;;;4988745;28;20117;-63
2023/11/10 10:23:44;;;;;;;8.75;2.53;;;8.40;99.90;;;;;;4987160;28;20046;-62
2023/11/10 10:26:15;;;;;;;7.63;2.78;;;8.50;99.90;;;;;;4991089;28;20462;-63
2023/11/10 10:29:02;;;;;;;6.95;2.78;;;8.50;99.90;;;;;;4998305;28;20203;-62
2023/11/10 10:31:32;;;;;;;8.80;2.83;;;8.50;99.90;;;;;;4996926;28;20501;-60
2023/11/10 10:34:04;;;;;;;8.63;2.95;;;8.50;99.90;;;;;;4988816;28;20037;-62
2023/11/10 10:36:38;;;;;;;6.40;2.60;;;8.50;99.90;;;;;;4988357;28;20049;-62
2023/11/10 10:39:12;;;;;;;6.75;2.55;;;8.50;99.90;;;;;;4982480;28;20117;-62
2023/11/10 10:41:47;;;;;;;10.45;2.95;;;8.50;99.90;;;;;;4988240;28;20109;-62
2023/11/10 10:44:22;;;;;;;6.35;2.72;;;8.50;99.90;;;;;;4988969;28;20058;-60
2023/11/10 10:46:52;;;;;;;10.43;2.75;;;8.50;99.90;;;;;;4987108;28;20038;-61
2023/11/10 10:49:26;;;;;;;9.43;3.20;;;8.50;99.90;;;;;;4989368;28;20065;-63
2023/11/10 10:51:56;;;;;;;7.10;2.60;;;8.50;99.90;;;;;;4988228;28;20717;-62
2023/11/10 10:54:22;;;;;;;7.20;3.08;;;8.50;99.90;;;;;;4985802;28;20043;-62
2023/11/10 10:56:52;;;;;;;6.32;3.00;;;8.50;99.90;;;;;;4987975;28;20498;-62
2023/11/10 10:59:28;;;;;;;7.57;2.80;;;8.50;99.90;;;;;;4988510;28;20042;-62
2023/11/10 11:02:04;;;;;;;11.95;3.30;;;8.50;99.90;;;;;;4987973;28;20038;-62
2023/11/10 11:04:51;;;;;;;9.93;3.45;;;8.50;99.90;;;;;;4987885;28;20129;-62
2023/11/10 11:07:41;;;;;;;7.60;3.08;;;8.50;99.90;;;;;;4987962;28;20461;-62
2023/11/10 11:10:43;;;;;;;10.50;2.70;;;8.50;99.90;;;;;;4982208;28;20042;-61
2023/11/10 11:13:28;;;;;;;11.55;2.75;;;8.50;99.90;;;;;;4976848;28;20614;-62
2023/11/10 11:16:28;;;;;;;7.97;2.90;;;8.50;99.90;;;;;;4987579;28;20066;-63
2023/11/10 11:19:24;;;;;;;10.30;3.28;;;8.50;99.90;;;;;;4984391;28;20402;-62
2023/11/10 11:22:02;;;;;;;7.72;3.08;;;8.50;99.90;;;;;;4987625;28;20121;-63
2023/11/10 11:24:32;;;;;;;13.02;3.28;;;8.50;99.90;;;;;;4987837;28;20726;-60
2023/11/10 11:27:07;;;;;;;10.82;3.00;;;8.50;99.90;;;;;;4969768;28;20417;-62
2023/11/10 11:29:42;;;;;;;8.43;3.05;;;8.50;99.90;;;;;;4987520;28;20189;-63
2023/11/10 11:32:20;;;;;;;8.40;2.53;;;8.50;99.90;;;;;;4981138;28;20030;-62
2023/11/10 11:34:53;;;;;;;8.27;2.78;;;8.50;99.90;;;;;;4987131;28;20460;-62
2023/11/10 11:37:28;;;;;;;10.27;3.17;;;8.50;99.90;;;;;;4981413;28;20405;-62
2023/11/10 11:40:06;;;;;;;9.32;2.83;;;8.50;99.90;;;;;;4969704;28;20491;-63
2023/11/10 11:42:38;;;;;;;7.43;2.80;;;8.40;99.90;;;;;;4987784;28;20540;-63
2023/11/10 11:45:14;;;;;;;9.60;2.80;;;8.40;99.90;;;;;;4983559;28;20038;-63
2023/11/10 11:47:42;;;;;;;6.70;2.50;;;8.40;99.90;;;;;;4987552;28;20506;-61
2023/11/10 11:50:12;;;;;;;8.52;2.65;;;8.40;99.90;;;;;;4987098;28;20473;-63
2023/11/10 11:52:38;;;;;;;6.45;2.92;;;8.40;99.90;;;;;;4987351;28;20100;-62
2023/11/10 11:55:15;;;;;;;8.57;2.92;;;8.40;99.90;;;;;;4969262;28;20076;-63
2023/11/10 11:57:46;;;;;;;8.35;3.20;;;8.30;99.90;;;;;;4980133;28;20046;-63
2023/11/10 12:00:13;;;;;;;10.30;3.07;;;8.30;99.90;;;;;;4987821;28;20034;-63
2023/11/10 12:02:41;;;;;;;10.95;3.10;;;8.30;99.90;;;;;;4987442;28;20050;-62
2023/11/10 12:05:13;;;;;;;7.85;3.25;;;8.30;99.90;;;;;;4969975;28;20039;-64
2023/11/10 12:07:42;;;;;;;10.77;2.90;;;8.30;99.90;;;;;;4990281;28;20136;-63
2023/11/10 12:10:14;;;;;;;8.48;3.15;;;8.30;99.90;;;;;;4987815;28;20434;-62
2023/11/10 12:12:44;;;;;;;11.00;2.95;;;8.30;99.90;;;;;;4982546;28;20819;-63
2023/11/10 12:15:20;;;;;;;10.43;3.10;;;8.30;99.90;;;;;;4986214;28;20061;-63
2023/11/10 12:17:57;;;;;;;9.23;3.05;;;8.30;99.90;;;;;;4962367;28;20054;-62
2023/11/10 12:20:59;;;;;;;6.85;3.03;;;8.30;99.90;;;;;;4987546;28;20110;-63
2023/11/10 12:23:25;;;;;;;9.55;3.47;;;8.40;99.90;;;;;;4965315;28;20510;-62
2023/11/10 12:25:54;;;;;;;10.68;3.40;;;8.40;99.90;;;;;;4986798;28;20085;-62
2023/11/10 12:28:25;;;;;;;6.80;2.75;;;8.30;99.90;;;;;;4985905;28;20449;-62
2023/11/10 12:30:53;;;;;;;8.23;3.00;;;8.30;99.90;;;;;;4983131;28;20132;-63
2023/11/10 12:33:30;;;;;;;9.88;3.35;;;8.30;99.90;;;;;;4987467;28;20405;-63
2023/11/10 12:36:02;;;;;;;7.35;2.70;;;8.30;99.90;;;;;;4985770;28;20050;-62
2023/11/10 12:38:31;;;;;;;;;;;8.30;99.90;;;;;;4983522;28;20129;-63
2023/11/10 12:40:58;;;;;;;6.60;2.67;;;8.30;99.90;;;;;;4987531;28;19925;-63
2023/11/10 12:43:28;;;;;;;6.78;2.90;;;8.30;99.90;;;;;;4982214;28;20064;-63
2023/11/10 12:46:07;;;;;;;9.32;3.30;;;8.30;99.90;;;;;;4980467;28;20042;-62
2023/11/10 12:48:35;;;;;;;8.07;3.63;;;8.30;99.90;;;;;;4986227;28;20057;-63
2023/11/10 12:51:07;;;;;;;8.15;3.55;;;8.30;99.90;;;;;;4987265;28;20050;-63
2023/11/10 12:53:39;;;;;;;12.07;3.78;;;8.20;99.90;;;;;;4984832;28;20046;-64
2023/11/10 12:56:10;;;;;;;5.70;3.10;;;8.20;99.90;;;;;;4979744;28;20361;-63
2023/11/10 12:58:38;;;;;;;9.15;3.15;;;8.20;99.90;;;;;;4986773;28;20405;-61
2023/11/10 13:01:10;;;;;;;6.55;2.90;;;8.20;99.90;;;;;;4986842;28;20525;-63
2023/11/10 13:03:38;;;;;;;10.50;2.83;;;8.20;99.90;;;;;;4969257;28;20126;-63